^^
Saratoga-Weather Station Historical Data
Daily Summary for January 4, 2020 Units:  Metric    English   Both
Daily Weekly Monthly Yearly Custom
  High: Low: Average:
Temperature: 9.8 °C 1.8 °C 5.2 °C
Dew Point: 6.2 °C 1.1 °C 3.5 °C
Humidity: 96% 74% 89%
Wind Speed: 9.7km/h 0km/h 1.1km/h
Wind Gust: 12.9km/h - -
Wind- - SW
Pressure: 1036.2 hPa 1027.4 hPa -
Precipitation: 0.0 mm    
Historical Graphs
 
 
Tabular Data for January 4, 2020
Time Temperature Dew Point Pressure Wind Wind Speed Wind Gust Humidity Rainfall Rate (Hourly) solar
00:01 6.4 °C 4.1 °C 1027.4 hPa WSW 6.4 km/h 12.9 km/h 85% 0.0 mm 0 W/m2
00:06 6.3 °C 4 °C 1027.4 hPa West 9.7 km/h 9.7 km/h 85% 0.0 mm 0 W/m2
00:11 6.3 °C 4 °C 1027.4 hPa NW 6.4 km/h 6.4 km/h 85% 0.0 mm 0 W/m2
00:16 6.3 °C 4 °C 1027.4 hPa West 1.4 km/h 4.8 km/h 85% 0.0 mm 0 W/m2
00:21 6.2 °C 3.9 °C 1027.4 hPa West 4.7 km/h 6.4 km/h 85% 0.0 mm 0 W/m2
00:26 6.3 °C 4 °C 1027.4 hPa WSW 1.4 km/h 9.7 km/h 85% 0.0 mm 0 W/m2
00:31 6.2 °C 3.9 °C 1027.4 hPa Calm   3.2 km/h 85% 0.0 mm 0 W/m2
00:36 6.1 °C 3.8 °C 1027.4 hPa West 4.7 km/h 9.7 km/h 85% 0.0 mm 0 W/m2
00:41 6 °C 3.7 °C 1027.4 hPa West 6.4 km/h 6.4 km/h 85% 0.0 mm 0 W/m2
00:46 5.9 °C 3.7 °C 1027.4 hPa West 1.4 km/h 9.7 km/h 86% 0.0 mm 0 W/m2
00:51 5.9 °C 3.6 °C 1027.4 hPa SW 3.2 km/h 4.8 km/h 85% 0.0 mm 0 W/m2
00:56 5.9 °C 3.7 °C 1027.4 hPa Calm   3.2 km/h 86% 0.0 mm 0 W/m2
01:01 5.8 °C 3.6 °C 1027.8 hPa Calm   1.6 km/h 86% 0.0 mm 0 W/m2
01:06 5.6 °C 3.4 °C 1027.8 hPa Calm     86% 0.0 mm 0 W/m2
01:11 5.4 °C 3.4 °C 1027.8 hPa Calm   1.6 km/h 87% 0.0 mm 0 W/m2
01:16 5.2 °C 3.2 °C 1027.8 hPa Calm   3.2 km/h 87% 0.0 mm 0 W/m2
01:21 5.2 °C 3.4 °C 1027.8 hPa West 4.7 km/h 8 km/h 88% 0.0 mm 0 W/m2
01:26 5.2 °C 3.4 °C 1027.8 hPa Calm   1.6 km/h 88% 0.0 mm 0 W/m2
01:31 5.2 °C 3.4 °C 1027.8 hPa Calm   6.4 km/h 88% 0.0 mm 0 W/m2
01:36 5.1 °C 3.3 °C 1027.8 hPa Calm     88% 0.0 mm 0 W/m2
01:41 5 °C 3.2 °C 1027.8 hPa Calm     88% 0.0 mm 0 W/m2
01:46 4.8 °C 3 °C 1027.8 hPa Calm     88% 0.0 mm 0 W/m2
01:51 4.6 °C 2.9 °C 1027.8 hPa Calm     89% 0.0 mm 0 W/m2
01:56 4.3 °C 2.8 °C 1027.8 hPa Calm     90% 0.0 mm 0 W/m2
02:01 4.2 °C 2.7 °C 1027.8 hPa Calm     90% 0.0 mm 0 W/m2
02:06 4.1 °C 2.8 °C 1027.8 hPa Calm     91% 0.0 mm 0 W/m2
02:11 3.9 °C 2.6 °C 1027.8 hPa Calm     91% 0.0 mm 0 W/m2
02:17 3.8 °C 2.5 °C 1027.8 hPa Calm     91% 0.0 mm 0 W/m2
02:22 3.8 °C 2.6 °C 1027.8 hPa Calm     92% 0.0 mm 0 W/m2
02:27 3.7 °C 2.5 °C 1027.8 hPa Calm     92% 0.0 mm 0 W/m2
02:32 3.6 °C 2.4 °C 1027.8 hPa Calm   3.2 km/h 92% 0.0 mm 0 W/m2
02:37 3.6 °C 2.4 °C 1027.8 hPa Calm     92% 0.0 mm 0 W/m2
02:42 3.6 °C 2.4 °C 1027.8 hPa Calm   3.2 km/h 92% 0.0 mm 0 W/m2
02:47 3.6 °C 2.6 °C 1027.8 hPa Calm   4.8 km/h 93% 0.0 mm 0 W/m2
02:52 3.6 °C 2.6 °C 1027.8 hPa Calm   1.6 km/h 93% 0.0 mm 0 W/m2
02:57 3.6 °C 2.6 °C 1027.8 hPa Calm     93% 0.0 mm 0 W/m2
03:02 3.6 °C 2.6 °C 1027.8 hPa Calm     93% 0.0 mm 0 W/m2
03:07 3.6 °C 2.6 °C 1027.8 hPa West 1.4 km/h 1.6 km/h 93% 0.0 mm 0 W/m2
03:12 3.7 °C 2.8 °C 1027.8 hPa West 1.4 km/h 1.6 km/h 94% 0.0 mm 0 W/m2
03:17 3.8 °C 2.8 °C 1028.1 hPa Calm   3.2 km/h 93% 0.0 mm 0 W/m2
03:22 3.7 °C 2.7 °C 1028.1 hPa East 3.2 km/h 4.8 km/h 93% 0.0 mm 0 W/m2
03:27 3.7 °C 2.7 °C 1028.1 hPa ESE 1.4 km/h 3.2 km/h 93% 0.0 mm 0 W/m2
03:32 3.6 °C 2.6 °C 1028.1 hPa ESE 1.4 km/h 3.2 km/h 93% 0.0 mm 0 W/m2
03:37 3.4 °C 2.4 °C 1028.1 hPa Calm   3.2 km/h 93% 0.0 mm 0 W/m2
03:42 3.3 °C 2.3 °C 1028.1 hPa ESE 1.4 km/h 3.2 km/h 93% 0.0 mm 0 W/m2
03:47 3.3 °C 2.3 °C 1028.1 hPa Calm   3.2 km/h 93% 0.0 mm 0 W/m2
03:52 3.2 °C 2.2 °C 1028.1 hPa Calm   1.6 km/h 93% 0.0 mm 0 W/m2
03:57 3.1 °C 2.1 °C 1028.1 hPa Calm     93% 0.0 mm 0 W/m2
04:02 3 °C 2 °C 1028.1 hPa Calm     93% 0.0 mm 0 W/m2
04:07 3 °C 2 °C 1028.1 hPa ESE 1.4 km/h 1.6 km/h 93% 0.0 mm 0 W/m2
04:12 2.9 °C 1.9 °C 1028.1 hPa Calm   1.6 km/h 93% 0.0 mm 0 W/m2
04:17 2.9 °C 1.9 °C 1028.1 hPa Calm   1.6 km/h 93% 0.0 mm 0 W/m2
04:22 2.8 °C 1.9 °C 1028.5 hPa ESE 1.4 km/h 1.6 km/h 94% 0.0 mm 0 W/m2
04:27 2.8 °C 1.9 °C 1028.5 hPa Calm   1.6 km/h 94% 0.0 mm 0 W/m2
04:32 2.8 °C 1.9 °C 1028.5 hPa Calm     94% 0.0 mm 0 W/m2
04:37 2.8 °C 1.9 °C 1028.5 hPa Calm     94% 0.0 mm 0 W/m2
04:42 2.7 °C 1.8 °C 1028.5 hPa Calm     94% 0.0 mm 0 W/m2
04:47 2.7 °C 1.8 °C 1028.5 hPa Calm     94% 0.0 mm 0 W/m2
04:52 2.6 °C 1.7 °C 1028.5 hPa Calm     94% 0.0 mm 0 W/m2
04:57 2.7 °C 1.8 °C 1028.5 hPa Calm     94% 0.0 mm 0 W/m2
05:02 2.7 °C 1.8 °C 1028.5 hPa Calm     94% 0.0 mm 0 W/m2
05:07 2.8 °C 1.9 °C 1028.5 hPa Calm     94% 0.0 mm 0 W/m2
05:12 2.8 °C 1.9 °C 1028.5 hPa Calm     94% 0.0 mm 0 W/m2
05:17 2.8 °C 1.9 °C 1028.8 hPa ESE 1.4 km/h 1.6 km/h 94% 0.0 mm 0 W/m2
05:22 2.8 °C 2.1 °C 1028.8 hPa Calm     95% 0.0 mm 0 W/m2
05:27 2.7 °C 1.8 °C 1028.8 hPa Calm     94% 0.0 mm 0 W/m2
05:32 2.7 °C 2 °C 1028.5 hPa Calm     95% 0.0 mm 0 W/m2
05:37 2.6 °C 1.7 °C 1028.8 hPa Calm     94% 0.0 mm 0 W/m2
05:42 2.4 °C 1.5 °C 1028.5 hPa Calm     94% 0.0 mm 0 W/m2
05:47 2.4 °C 1.5 °C 1028.8 hPa Calm     94% 0.0 mm 0 W/m2
05:52 2.3 °C 1.4 °C 1028.8 hPa Calm     94% 0.0 mm 0 W/m2
05:57 2.2 °C 1.5 °C 1028.8 hPa Calm     95% 0.0 mm 0 W/m2
06:02 2.2 °C 1.5 °C 1028.8 hPa Calm     95% 0.0 mm 0 W/m2
06:07 2.2 °C 1.3 °C 1028.8 hPa Calm     94% 0.0 mm 0 W/m2
06:12 2.1 °C 1.4 °C 1029.1 hPa Calm     95% 0.0 mm 0 W/m2
06:17 2.1 °C 1.4 °C 1029.1 hPa Calm     95% 0.0 mm 0 W/m2
06:22 2.1 °C 1.4 °C 1029.1 hPa Calm     95% 0.0 mm 0 W/m2
06:27 2.1 °C 1.4 °C 1029.1 hPa Calm     95% 0.0 mm 0 W/m2
06:32 2 °C 1.3 °C 1029.1 hPa Calm     95% 0.0 mm 0 W/m2
06:37 1.9 °C 1.2 °C 1029.1 hPa Calm     95% 0.0 mm 0 W/m2
06:42 1.9 °C 1.2 °C 1029.1 hPa Calm     95% 0.0 mm 0 W/m2
06:47 1.9 °C 1.2 °C 1029.1 hPa Calm     95% 0.0 mm 0 W/m2
06:52 1.9 °C 1.2 °C 1029.1 hPa Calm   3.2 km/h 95% 0.0 mm 0 W/m2
06:57 1.9 °C 1.2 °C 1029.5 hPa Calm     95% 0.0 mm 0 W/m2
07:02 1.9 °C 1.2 °C 1029.5 hPa SW 1.4 km/h 4.8 km/h 95% 0.0 mm 0 W/m2
07:07 1.9 °C 1.2 °C 1029.5 hPa Calm     95% 0.0 mm 0 W/m2
07:12 1.8 °C 1.1 °C 1029.5 hPa Calm     95% 0.0 mm 0 W/m2
07:17 1.8 °C 1.1 °C 1029.5 hPa Calm     95% 0.0 mm 0 W/m2
07:22 1.8 °C 1.1 °C 1029.5 hPa Calm     95% 0.0 mm 0 W/m2
07:27 1.9 °C 1.2 °C 1029.5 hPa Calm     95% 0.0 mm 0 W/m2
07:32 1.9 °C 1.2 °C 1029.5 hPa Calm   1.6 km/h 95% 0.0 mm 0 W/m2
07:38 1.9 °C 1.2 °C 1029.8 hPa Calm     95% 0.0 mm 5 W/m2
07:43 1.8 °C 1.1 °C 1029.8 hPa SE 3.2 km/h 3.2 km/h 95% 0.0 mm 7 W/m2
07:48 1.9 °C 1.2 °C 1029.8 hPa Calm     95% 0.0 mm 9 W/m2
07:53 1.9 °C 1.2 °C 1029.8 hPa Calm     95% 0.0 mm 11 W/m2
07:58 2 °C 1.3 °C 1029.8 hPa Calm     95% 0.0 mm 12 W/m2
08:03 2 °C 1.3 °C 1030.1 hPa Calm     95% 0.0 mm 14 W/m2
08:08 1.9 °C 1.2 °C 1030.1 hPa Calm     95% 0.0 mm 18 W/m2
08:13 1.9 °C 1.2 °C 1030.1 hPa Calm     95% 0.0 mm 19 W/m2
08:18 1.9 °C 1.2 °C 1030.1 hPa Calm     95% 0.0 mm 19 W/m2
08:23 1.9 °C 1.2 °C 1030.1 hPa Calm     95% 0.0 mm 23 W/m2
08:28 2 °C 1.4 °C 1030.5 hPa Calm     96% 0.0 mm 42 W/m2
08:33 2.1 °C 1.5 °C 1030.5 hPa Calm     96% 0.0 mm 47 W/m2
08:38 2.2 °C 1.6 °C 1030.5 hPa SE 1.4 km/h 1.6 km/h 96% 0.0 mm 63 W/m2
08:43 2.4 °C 1.8 °C 1030.5 hPa Calm     96% 0.0 mm 65 W/m2
08:48 2.6 °C 2 °C 1030.5 hPa Calm     96% 0.0 mm 54 W/m2
08:53 2.7 °C 2.1 °C 1030.5 hPa WSW 1.4 km/h 1.6 km/h 96% 0.0 mm 67 W/m2
08:58 2.8 °C 2.2 °C 1030.5 hPa Calm     96% 0.0 mm 56 W/m2
09:03 2.9 °C 2.3 °C 1030.8 hPa Calm     96% 0.0 mm 56 W/m2
09:08 3 °C 2.4 °C 1030.8 hPa Calm     96% 0.0 mm 65 W/m2
09:13 3.1 °C 2.5 °C 1030.8 hPa Calm   1.6 km/h 96% 0.0 mm 65 W/m2
09:18 3.2 °C 2.6 °C 1030.8 hPa WSW 1.4 km/h 1.6 km/h 96% 0.0 mm 79 W/m2
09:23 3.3 °C 2.7 °C 1030.8 hPa WSW 1.4 km/h 3.2 km/h 96% 0.0 mm 88 W/m2
09:28 3.4 °C 2.8 °C 1031.2 hPa WSW 1.4 km/h 1.6 km/h 96% 0.0 mm 70 W/m2
09:33 3.5 °C 2.9 °C 1031.2 hPa Calm   1.6 km/h 96% 0.0 mm 79 W/m2
09:38 3.6 °C 3 °C 1031.2 hPa Calm   1.6 km/h 96% 0.0 mm 76 W/m2
09:43 3.8 °C 3.2 °C 1031.2 hPa WSW 1.4 km/h 1.6 km/h 96% 0.0 mm 76 W/m2
09:48 3.9 °C 3.3 °C 1031.2 hPa North 1.4 km/h 3.2 km/h 96% 0.0 mm 74 W/m2
09:54 4.1 °C 3.5 °C 1031.2 hPa North 1.4 km/h 3.2 km/h 96% 0.0 mm 76 W/m2
09:59 4.2 °C 3.6 °C 1031.2 hPa ENE 1.4 km/h 1.6 km/h 96% 0.0 mm 83 W/m2
10:04 4.2 °C 3.6 °C 1031.5 hPa Calm   3.2 km/h 96% 0.0 mm 77 W/m2
10:09 4.3 °C 3.7 °C 1031.5 hPa ESE 4.7 km/h 4.8 km/h 96% 0.0 mm 72 W/m2
10:14 4.4 °C 3.8 °C 1031.5 hPa NNW 7.9 km/h 8 km/h 96% 0.0 mm 79 W/m2
10:19 4.4 °C 3.7 °C 1031.5 hPa NNW 1.4 km/h 1.6 km/h 95% 0.0 mm 95 W/m2
10:24 4.6 °C 4 °C 1031.5 hPa Calm   1.6 km/h 96% 0.0 mm 107 W/m2
10:29 4.6 °C 3.9 °C 1031.5 hPa WNW 1.4 km/h 9.7 km/h 95% 0.0 mm 105 W/m2
10:34 4.7 °C 4 °C 1031.5 hPa Calm   4.8 km/h 95% 0.0 mm 118 W/m2
10:39 4.7 °C 4 °C 1031.5 hPa WNW 3.2 km/h 9.7 km/h 95% 0.0 mm 130 W/m2
10:44 4.7 °C 4 °C 1031.5 hPa North 4.7 km/h 6.4 km/h 95% 0.0 mm 181 W/m2
10:49 4.8 °C 4.1 °C 1031.5 hPa NW 1.4 km/h 6.4 km/h 95% 0.0 mm 134 W/m2
10:54 4.8 °C 3.9 °C 1031.5 hPa NW 1.4 km/h 6.4 km/h 94% 0.0 mm 105 W/m2
10:59 4.8 °C 3.9 °C 1031.5 hPa Calm   1.6 km/h 94% 0.0 mm 190 W/m2
11:04 4.9 °C 4 °C 1031.5 hPa NW 3.2 km/h 6.4 km/h 94% 0.0 mm 195 W/m2
11:09 5.1 °C 4.2 °C 1031.5 hPa WNW 1.4 km/h 9.7 km/h 94% 0.0 mm 174 W/m2
11:14 5.2 °C 4.3 °C 1031.5 hPa WNW 3.2 km/h 4.8 km/h 94% 0.0 mm 190 W/m2
11:19 5.3 °C 4.4 °C 1031.5 hPa Calm   1.6 km/h 94% 0.0 mm 176 W/m2
11:24 5.5 °C 4.5 °C 1031.5 hPa North 3.2 km/h 3.2 km/h 93% 0.0 mm 104 W/m2
11:29 5.6 °C 4.6 °C 1031.5 hPa North 3.2 km/h 3.2 km/h 93% 0.0 mm 109 W/m2
11:34 5.7 °C 4.7 °C 1031.5 hPa NW 3.2 km/h 9.7 km/h 93% 0.0 mm 58 W/m2
11:39 5.8 °C 4.6 °C 1031.5 hPa Calm   1.6 km/h 92% 0.0 mm 67 W/m2
11:44 5.9 °C 4.7 °C 1031.5 hPa NE 1.4 km/h 8 km/h 92% 0.0 mm 91 W/m2
11:49 6.1 °C 4.9 °C 1031.5 hPa ENE 1.4 km/h 6.4 km/h 92% 0.0 mm 118 W/m2
11:54 6.3 °C 4.9 °C 1031.5 hPa North 1.4 km/h 8 km/h 91% 0.0 mm 253 W/m2
11:59 6.6 °C 5.1 °C 1031.5 hPa NE 3.2 km/h 4.8 km/h 90% 0.0 mm 239 W/m2
12:04 6.8 °C 5.3 °C 1031.5 hPa NNW 1.4 km/h 4.8 km/h 90% 0.0 mm 93 W/m2
12:09 6.9 °C 5.1 °C 1031.5 hPa Calm   4.8 km/h 88% 0.0 mm 56 W/m2
12:14 7 °C 5.1 °C 1031.5 hPa East 3.2 km/h 4.8 km/h 88% 0.0 mm 58 W/m2
12:19 7.1 °C 5.2 °C 1031.5 hPa Calm   3.2 km/h 88% 0.0 mm 47 W/m2
12:24 7.1 °C 5.1 °C 1031.5 hPa Calm   3.2 km/h 87% 0.0 mm 44 W/m2
12:29 7.1 °C 5.1 °C 1031.5 hPa Calm   1.6 km/h 87% 0.0 mm 56 W/m2
12:34 7.2 °C 5.2 °C 1031.5 hPa ENE 1.4 km/h 4.8 km/h 87% 0.0 mm 62 W/m2
12:39 7.4 °C 5.4 °C 1031.5 hPa ENE 3.2 km/h 8 km/h 87% 0.0 mm 74 W/m2
12:44 7.6 °C 5.4 °C 1031.2 hPa NE 1.4 km/h 4.8 km/h 86% 0.0 mm 44 W/m2
12:49 7.7 °C 5.3 °C 1031.5 hPa WNW 6.4 km/h 8 km/h 85% 0.0 mm 70 W/m2
12:54 7.9 °C 5.5 °C 1031.5 hPa ENE 3.2 km/h 4.8 km/h 85% 0.0 mm 53 W/m2
12:59 8 °C 5.6 °C 1031.5 hPa NW 1.4 km/h 3.2 km/h 85% 0.0 mm 51 W/m2
13:04 8.2 °C 5.7 °C 1031.5 hPa NE 1.4 km/h 6.4 km/h 84% 0.0 mm 65 W/m2
13:09 8.3 °C 5.6 °C 1031.5 hPa West 6.4 km/h 8 km/h 83% 0.0 mm 51 W/m2
13:14 8.3 °C 5.4 °C 1031.5 hPa West 3.2 km/h 4.8 km/h 82% 0.0 mm 46 W/m2
13:19 8.4 °C 5.7 °C 1031.5 hPa Calm   1.6 km/h 83% 0.0 mm 62 W/m2
13:24 8.5 °C 5.8 °C 1031.5 hPa North 6.4 km/h 6.4 km/h 83% 0.0 mm 58 W/m2
13:29 8.7 °C 5.6 °C 1031.5 hPa West 3.2 km/h 9.7 km/h 81% 0.0 mm 95 W/m2
13:34 8.8 °C 5.7 °C 1031.2 hPa Calm   6.4 km/h 81% 0.0 mm 62 W/m2
13:39 8.9 °C 5.8 °C 1031.2 hPa North 3.2 km/h 3.2 km/h 81% 0.0 mm 74 W/m2
13:44 9 °C 5.7 °C 1031.2 hPa NW 3.2 km/h 6.4 km/h 80% 0.0 mm 69 W/m2
13:49 9.1 °C 6 °C 1031.2 hPa NW 3.2 km/h 8 km/h 81% 0.0 mm 81 W/m2
13:55 9.1 °C 5.8 °C 1031.2 hPa WNW 1.4 km/h 9.7 km/h 80% 0.0 mm 53 W/m2
14:00 9.2 °C 5.9 °C 1031.2 hPa NW 3.2 km/h 3.2 km/h 80% 0.0 mm 62 W/m2
14:05 9.2 °C 5.9 °C 1031.2 hPa Calm   8 km/h 80% 0.0 mm 83 W/m2
14:10 9.2 °C 5.7 °C 1031.2 hPa NW 1.4 km/h 9.7 km/h 79% 0.0 mm 90 W/m2
14:15 9.2 °C 5.7 °C 1031.2 hPa ESE 3.2 km/h 6.4 km/h 79% 0.0 mm 63 W/m2
14:20 9.3 °C 5.8 °C 1031.2 hPa WNW 3.2 km/h 11.3 km/h 79% 0.0 mm 56 W/m2
14:25 9.4 °C 5.9 °C 1031.2 hPa West 3.2 km/h 6.4 km/h 79% 0.0 mm 56 W/m2
14:30 9.4 °C 5.9 °C 1031.5 hPa West 4.7 km/h 12.9 km/h 79% 0.0 mm 72 W/m2
14:35 9.5 °C 5.9 °C 1031.2 hPa NW 1.4 km/h 3.2 km/h 78% 0.0 mm 81 W/m2
14:40 9.6 °C 6 °C 1031.5 hPa NNW 6.4 km/h 9.7 km/h 78% 0.0 mm 72 W/m2
14:45 9.6 °C 6 °C 1031.5 hPa West 3.2 km/h 11.3 km/h 78% 0.0 mm 86 W/m2
14:50 9.7 °C 6.2 °C 1031.2 hPa NE 1.4 km/h 4.8 km/h 79% 0.0 mm 95 W/m2
14:55 9.7 °C 6 °C 1031.5 hPa NE 3.2 km/h 6.4 km/h 78% 0.0 mm 83 W/m2
15:00 9.7 °C 5.9 °C 1031.5 hPa Calm   3.2 km/h 77% 0.0 mm 67 W/m2
15:05 9.8 °C 6 °C 1031.5 hPa Calm   3.2 km/h 77% 0.0 mm 51 W/m2
15:10 9.8 °C 6 °C 1031.5 hPa NNW 3.2 km/h 8 km/h 77% 0.0 mm 40 W/m2
15:15 9.8 °C 5.8 °C 1031.5 hPa NNW 7.9 km/h 9.7 km/h 76% 0.0 mm 32 W/m2
15:20 9.8 °C 5.8 °C 1031.5 hPa NNE 3.2 km/h 6.4 km/h 76% 0.0 mm 33 W/m2
15:25 9.7 °C 5.5 °C 1031.5 hPa WNW 3.2 km/h 9.7 km/h 75% 0.0 mm 35 W/m2
15:30 9.7 °C 5.3 °C 1031.5 hPa NNW 1.4 km/h 6.4 km/h 74% 0.0 mm 32 W/m2
15:35 9.7 °C 5.3 °C 1031.5 hPa NE 7.9 km/h 8 km/h 74% 0.0 mm 28 W/m2
15:40 9.7 °C 5.3 °C 1031.8 hPa Calm   6.4 km/h 74% 0.0 mm 26 W/m2
15:45 9.7 °C 5.3 °C 1031.8 hPa NE 4.7 km/h 8 km/h 74% 0.0 mm 26 W/m2
15:50 9.7 °C 5.3 °C 1031.8 hPa WNW 3.2 km/h 6.4 km/h 74% 0.0 mm 25 W/m2
15:55 9.7 °C 5.3 °C 1031.8 hPa NW 4.7 km/h 11.3 km/h 74% 0.0 mm 23 W/m2
16:00 9.7 °C 5.3 °C 1031.8 hPa ENE 1.4 km/h 4.8 km/h 74% 0.0 mm 23 W/m2
16:05 9.6 °C 5.2 °C 1031.8 hPa North 1.4 km/h 11.3 km/h 74% 0.0 mm 23 W/m2
16:10 9.6 °C 5.2 °C 1031.8 hPa NNE 4.7 km/h 6.4 km/h 74% 0.0 mm 23 W/m2
16:15 9.5 °C 5.3 °C 1031.8 hPa ENE 4.7 km/h 9.7 km/h 75% 0.0 mm 21 W/m2
16:20 9.4 °C 5.2 °C 1031.8 hPa NE 1.4 km/h 3.2 km/h 75% 0.0 mm 19 W/m2
16:25 9.4 °C 5.2 °C 1031.8 hPa Calm   9.7 km/h 75% 0.0 mm 18 W/m2
16:30 9.3 °C 5.3 °C 1031.8 hPa NNW 1.4 km/h 3.2 km/h 76% 0.0 mm 16 W/m2
16:35 9.2 °C 5.2 °C 1031.8 hPa Calm   1.6 km/h 76% 0.0 mm 14 W/m2
16:40 9.1 °C 5.3 °C 1032.2 hPa Calm   3.2 km/h 77% 0.0 mm 14 W/m2
16:45 9 °C 5.2 °C 1032.2 hPa Calm   1.6 km/h 77% 0.0 mm 12 W/m2
16:50 9 °C 5.2 °C 1032.2 hPa Calm   1.6 km/h 77% 0.0 mm 12 W/m2
16:55 8.9 °C 5.3 °C 1032.2 hPa Calm     78% 0.0 mm 11 W/m2
17:00 8.8 °C 5.2 °C 1032.2 hPa Calm   1.6 km/h 78% 0.0 mm 7 W/m2
17:05 8.7 °C 5.3 °C 1032.2 hPa NW 1.4 km/h 1.6 km/h 79% 0.0 mm 5 W/m2
17:10 8.4 °C 5.2 °C 1032.2 hPa Calm   1.6 km/h 80% 0.0 mm 0 W/m2
17:15 8.2 °C 5.1 °C 1032.2 hPa Calm     81% 0.0 mm 0 W/m2
17:20 7.9 °C 4.8 °C 1032.2 hPa Calm     81% 0.0 mm 0 W/m2
17:25 7.8 °C 4.9 °C 1032.2 hPa Calm   1.6 km/h 82% 0.0 mm 0 W/m2
17:31 7.6 °C 4.7 °C 1032.5 hPa Calm     82% 0.0 mm 0 W/m2
17:36 7.4 °C 4.7 °C 1032.5 hPa Calm   1.6 km/h 83% 0.0 mm 0 W/m2
17:41 7.2 °C 4.7 °C 1032.5 hPa Calm   1.6 km/h 84% 0.0 mm 0 W/m2
17:46 7.1 °C 4.6 °C 1032.5 hPa Calm   3.2 km/h 84% 0.0 mm 0 W/m2
17:51 6.9 °C 4.6 °C 1032.5 hPa Calm   3.2 km/h 85% 0.0 mm 0 W/m2
17:56 6.9 °C 4.6 °C 1032.5 hPa Calm   1.6 km/h 85% 0.0 mm 0 W/m2
18:01 6.8 °C 4.5 °C 1032.8 hPa Calm   3.2 km/h 85% 0.0 mm 0 W/m2
18:06 6.7 °C 4.5 °C 1032.8 hPa WSW 3.2 km/h 3.2 km/h 86% 0.0 mm 0 W/m2
18:11 6.7 °C 4.5 °C 1032.8 hPa Calm     86% 0.0 mm 0 W/m2
18:16 6.6 °C 4.4 °C 1033.2 hPa WSW 1.4 km/h 1.6 km/h 86% 0.0 mm 0 W/m2
18:21 6.5 °C 4.3 °C 1033.2 hPa Calm   1.6 km/h 86% 0.0 mm 0 W/m2
18:26 6.4 °C 4.2 °C 1033.2 hPa Calm     86% 0.0 mm 0 W/m2
18:31 6.3 °C 4.3 °C 1033.2 hPa WSW 1.4 km/h 1.6 km/h 87% 0.0 mm 0 W/m2
18:36 6.3 °C 4.3 °C 1033.2 hPa Calm     87% 0.0 mm 0 W/m2
18:41 6.2 °C 4.2 °C 1033.5 hPa Calm     87% 0.0 mm 0 W/m2
18:46 6.1 °C 4.1 °C 1033.5 hPa Calm     87% 0.0 mm 0 W/m2
18:51 6 °C 4 °C 1033.5 hPa Calm     87% 0.0 mm 0 W/m2
18:56 5.9 °C 4.1 °C 1033.5 hPa Calm   1.6 km/h 88% 0.0 mm 0 W/m2
19:01 5.8 °C 4 °C 1033.5 hPa WSW 1.4 km/h 3.2 km/h 88% 0.0 mm 0 W/m2
19:06 5.7 °C 3.9 °C 1033.9 hPa Calm   3.2 km/h 88% 0.0 mm 0 W/m2
19:11 5.7 °C 3.9 °C 1033.9 hPa Calm   1.6 km/h 88% 0.0 mm 0 W/m2
19:16 5.6 °C 3.9 °C 1033.9 hPa Calm   1.6 km/h 89% 0.0 mm 0 W/m2
19:21 5.6 °C 3.9 °C 1033.9 hPa WSW 1.4 km/h 3.2 km/h 89% 0.0 mm 0 W/m2
19:26 5.5 °C 3.8 °C 1033.9 hPa WSW 1.4 km/h 1.6 km/h 89% 0.0 mm 0 W/m2
19:31 5.4 °C 3.7 °C 1034.2 hPa Calm   3.2 km/h 89% 0.0 mm 0 W/m2
19:36 5.3 °C 3.6 °C 1034.2 hPa Calm   1.6 km/h 89% 0.0 mm 0 W/m2
19:41 5.3 °C 3.8 °C 1034.2 hPa WSW 3.2 km/h 3.2 km/h 90% 0.0 mm 0 W/m2
19:46 5.2 °C 3.7 °C 1034.2 hPa Calm   3.2 km/h 90% 0.0 mm 0 W/m2
19:51 5.1 °C 3.6 °C 1034.2 hPa Calm   1.6 km/h 90% 0.0 mm 0 W/m2
19:56 5 °C 3.5 °C 1034.2 hPa Calm   3.2 km/h 90% 0.0 mm 0 W/m2
20:01 5 °C 3.7 °C 1034.2 hPa Calm   3.2 km/h 91% 0.0 mm 0 W/m2
20:06 4.9 °C 3.6 °C 1034.2 hPa Calm     91% 0.0 mm 0 W/m2
20:11 4.9 °C 3.6 °C 1034.2 hPa Calm   3.2 km/h 91% 0.0 mm 0 W/m2
20:16 4.8 °C 3.5 °C 1034.5 hPa Calm     91% 0.0 mm 0 W/m2
20:21 4.8 °C 3.5 °C 1034.5 hPa WSW 1.4 km/h 1.6 km/h 91% 0.0 mm 0 W/m2
20:26 4.8 °C 3.5 °C 1034.5 hPa Calm   1.6 km/h 91% 0.0 mm 0 W/m2
20:31 4.8 °C 3.5 °C 1034.5 hPa WSW 3.2 km/h 3.2 km/h 91% 0.0 mm 0 W/m2
20:36 4.8 °C 3.5 °C 1034.5 hPa WSW 1.4 km/h 1.6 km/h 91% 0.0 mm 0 W/m2
20:41 4.9 °C 3.6 °C 1034.5 hPa Calm   3.2 km/h 91% 0.0 mm 0 W/m2
20:46 4.8 °C 3.5 °C 1034.9 hPa Calm   1.6 km/h 91% 0.0 mm 0 W/m2
20:51 4.8 °C 3.5 °C 1034.9 hPa WSW 1.4 km/h 1.6 km/h 91% 0.0 mm 0 W/m2
20:56 4.8 °C 3.5 °C 1034.9 hPa Calm   1.6 km/h 91% 0.0 mm 0 W/m2
21:01 4.8 °C 3.5 °C 1035.2 hPa WSW 1.4 km/h 1.6 km/h 91% 0.0 mm 0 W/m2
21:06 4.8 °C 3.5 °C 1035.2 hPa Calm     91% 0.0 mm 0 W/m2
21:11 4.8 °C 3.5 °C 1035.2 hPa Calm     91% 0.0 mm 0 W/m2
21:16 4.8 °C 3.5 °C 1035.2 hPa Calm   3.2 km/h 91% 0.0 mm 0 W/m2
21:21 4.8 °C 3.5 °C 1035.2 hPa Calm   3.2 km/h 91% 0.0 mm 0 W/m2
21:26 4.7 °C 3.4 °C 1035.2 hPa Calm   3.2 km/h 91% 0.0 mm 0 W/m2
21:31 4.6 °C 3.3 °C 1035.6 hPa Calm   1.6 km/h 91% 0.0 mm 0 W/m2
21:36 4.6 °C 3.3 °C 1035.6 hPa WSW 1.4 km/h 3.2 km/h 91% 0.0 mm 0 W/m2
21:41 4.6 °C 3.4 °C 1035.6 hPa WSW 3.2 km/h 3.2 km/h 92% 0.0 mm 0 W/m2
21:46 4.6 °C 3.4 °C 1035.6 hPa WSW 1.4 km/h 3.2 km/h 92% 0.0 mm 0 W/m2
21:51 4.7 °C 3.5 °C 1035.6 hPa WSW 1.4 km/h 1.6 km/h 92% 0.0 mm 0 W/m2
21:56 4.7 °C 3.5 °C 1035.6 hPa NW 1.4 km/h 1.6 km/h 92% 0.0 mm 0 W/m2
22:01 4.7 °C 3.4 °C 1035.6 hPa Calm     91% 0.0 mm 0 W/m2
22:06 4.7 °C 3.4 °C 1035.9 hPa Calm   4.8 km/h 91% 0.0 mm 0 W/m2
22:11 4.8 °C 3.6 °C 1035.9 hPa Calm   6.4 km/h 92% 0.0 mm 0 W/m2
22:16 4.9 °C 3.7 °C 1035.9 hPa NNE 1.4 km/h 4.8 km/h 92% 0.0 mm 0 W/m2
22:21 5.1 °C 3.8 °C 1035.9 hPa WSW 1.4 km/h 6.4 km/h 91% 0.0 mm 0 W/m2
22:26 5 °C 3.7 °C 1035.9 hPa Calm   1.6 km/h 91% 0.0 mm 0 W/m2
22:31 4.9 °C 3.4 °C 1035.9 hPa Calm   3.2 km/h 90% 0.0 mm 0 W/m2
22:36 4.7 °C 3.2 °C 1035.9 hPa WSW 1.4 km/h 3.2 km/h 90% 0.0 mm 0 W/m2
22:41 4.6 °C 3.3 °C 1035.9 hPa WSW 1.4 km/h 1.6 km/h 91% 0.0 mm 0 W/m2
22:46 4.4 °C 2.9 °C 1035.9 hPa WSW 3.2 km/h 3.2 km/h 90% 0.0 mm 0 W/m2
22:51 4.3 °C 3 °C 1035.9 hPa Calm   3.2 km/h 91% 0.0 mm 0 W/m2
22:56 4.2 °C 2.9 °C 1035.9 hPa Calm   1.6 km/h 91% 0.0 mm 0 W/m2
23:01 4.1 °C 2.8 °C 1035.9 hPa Calm   3.2 km/h 91% 0.0 mm 0 W/m2
23:06 4.1 °C 2.9 °C 1035.9 hPa Calm   1.6 km/h 92% 0.0 mm 0 W/m2
23:11 4.1 °C 2.9 °C 1036.2 hPa WSW 3.2 km/h 3.2 km/h 92% 0.0 mm 0 W/m2
23:16 4 °C 2.8 °C 1036.2 hPa Calm     92% 0.0 mm 0 W/m2
23:22 4 °C 3 °C 1036.2 hPa WSW 1.4 km/h 3.2 km/h 93% 0.0 mm 0 W/m2
23:27 4.1 °C 3.1 °C 1036.2 hPa Calm     93% 0.0 mm 0 W/m2
23:32 4.1 °C 3.1 °C 1036.2 hPa Calm     93% 0.0 mm 0 W/m2
23:37 4 °C 3 °C 1036.2 hPa Calm     93% 0.0 mm 0 W/m2
23:42 3.9 °C 2.9 °C 1035.9 hPa Calm     93% 0.0 mm 0 W/m2
23:47 3.9 °C 2.9 °C 1035.9 hPa Calm     93% 0.0 mm 0 W/m2
23:52 3.9 °C 2.9 °C 1035.9 hPa Calm     93% 0.0 mm 0 W/m2
23:57 4 °C 3 °C 1036.2 hPa Calm   1.6 km/h 93% 0.0 mm 0 W/m2
Juneau County Weather
Compliments of Weather Underground - 4 mb